BRU weather

Brussels Airport
Brussels, Brussels-Capital Region, Belgium

Public forecast

Using degrees Celsius for public forecast. Weather courtesy of forecast.io.

METAR (pilot weather report)

Retrieved 2019/04/23 09:20 UTC (13 minutes ago):

EBBR 230920Z 09008KT 060V130 CAVOK 16/06 Q0998 NOSIG

TAF (pilot weather forecast)

Retrieved 2019/04/23 06:28 UTC (3 hours ago):

TAF EBBR 230510Z 2306/2412 08009KT CAVOK BECMG 2406/2408 18012KT PROB30 TEMPO 2409/2412 19017G27KT